Time;durP1;ratioP1;P1;durP2;ratioP2;P2;SDS_P1;SDS_P2;PMS_P1;PMS_P2;Temp;Humidity;BMP_temperature;BMP_pressure;BME280_temperature;BME280_humidity;BME280_pressure;Samples;Min_cycle;Max_cycle;Signal;HPM_P1;HPM_P2
2021/01/09 00:01:19;;;;;;;;;;;;;;;0.97;100.00;100637.69;1867402;77;20133;-42
2021/01/09 00:03:47;;;;;;;;;;;;;;;0.95;100.00;100636.36;1867529;76;20187;-43
2021/01/09 00:06:15;;;;;;;;;;;;;;;0.94;100.00;100629.86;1867328;77;20391;-43
2021/01/09 00:08:43;;;;;;;;;;;;;;;0.94;100.00;100616.96;1867348;77;20461;-44
2021/01/09 00:11:10;;;;;;;;;;;;;;;0.92;100.00;100615.63;1867585;77;20224;-44
2021/01/09 00:13:39;;;;;;;;;;;;;;;0.91;100.00;100620.78;1867541;76;20457;-43
2021/01/09 00:16:07;;;;;;;;;;;;;;;0.92;100.00;100614.79;1867248;76;20121;-43
2021/01/09 00:18:35;;;;;;;;;;;;;;;0.93;100.00;100610.05;1867397;77;20403;-44
2021/01/09 00:21:04;;;;;;;;;;;;;;;0.94;100.00;100606.22;1867346;76;20227;-44
2021/01/09 00:23:32;;;;;;;;;;;;;;;0.92;100.00;100596.27;1867508;77;20129;-43
2021/01/09 00:26:00;;;;;;;;;;;;;;;0.93;100.00;100587.70;1867185;76;20121;-43
2021/01/09 00:28:28;;;;;;;;;;;;;;;0.94;100.00;100584.70;1867404;76;20422;-44
2021/01/09 00:30:56;;;;;;;;;;;;;;;0.92;100.00;100567.05;1867272;76;20136;-42
2021/01/09 00:33:24;;;;;;;;;;;;;;;0.92;100.00;100558.85;1867400;77;20243;-40
2021/01/09 00:35:56;;;;;;;;;;;;;;;0.90;100.00;100539.91;1867204;76;20243;-40
2021/01/09 00:38:21;;;;;;;;;;;;;;;0.88;100.00;100529.09;1867133;76;20124;-40
2021/01/09 00:40:49;;;;;;;;;;;;;;;0.87;100.00;100526.06;1867307;77;20144;-42
2021/01/09 00:43:17;;;;;;;;;;;;;;;0.85;100.00;100525.18;1867222;77;20275;-42
2021/01/09 00:45:45;;;;;;;;;;;;;;;0.85;100.00;100520.02;1867119;77;20246;-42
2021/01/09 00:48:13;;;;;;;;;;;;;;;0.84;100.00;100515.70;1867161;77;20121;-40
2021/01/09 00:50:41;;;;;;;;;;;;;;;0.82;100.00;100515.66;1867115;76;20228;-40
2021/01/09 00:53:09;;;;;;;;;;;;;;;0.80;100.00;100518.20;1867479;76;20239;-41
2021/01/09 00:55:37;;;;;;;;;;;;;;;0.79;100.00;100521.62;1867379;76;20243;-41
2021/01/09 00:58:05;;;;;;;;;;;;;;;0.78;100.00;100522.48;1867497;76;20224;-42
2021/01/09 01:00:34;;;;;;;;;;;;;;;0.79;100.00;100527.19;1867208;76;20184;-42
2021/01/09 01:03:03;;;;;;;;;;;;;;;0.77;100.00;100515.58;1867228;77;20192;-42
2021/01/09 01:05:31;;;;;;;;;;;;;;;0.76;100.00;100507.80;1867371;76;20188;-41
2021/01/09 01:07:59;;;;;;;;;;;;;;;0.75;100.00;100496.61;1867275;77;20156;-41
2021/01/09 01:10:27;;;;;;;;;;;;;;;0.76;100.00;100509.09;1867354;76;20121;-42
2021/01/09 01:12:55;;;;;;;;;;;;;;;0.75;100.00;100522.41;1867503;76;20263;-41
2021/01/09 01:15:23;;;;;;;;;;;;;;;0.75;100.00;100527.98;1867344;77;20417;-41
2021/01/09 01:17:51;;;;;;;;;;;;;;;0.75;100.00;100530.56;1867184;76;20136;-41
2021/01/09 01:20:20;;;;;;;;;;;;;;;0.74;100.00;100532.27;1867317;76;20228;-40
2021/01/09 01:22:48;;;;;;;;;;;;;;;0.75;100.00;100535.73;1867532;77;20279;-41
2021/01/09 01:25:16;;;;;;;;;;;;;;;0.74;100.00;100540.42;1867319;77;20148;-40
2021/01/09 01:27:44;;;;;;;;;;;;;;;0.74;100.00;100536.14;1867422;77;20442;-41
2021/01/09 01:30:13;;;;;;;;;;;;;;;0.73;100.00;100536.98;1867442;76;20250;-40
2021/01/09 01:32:40;;;;;;;;;;;;;;;0.70;100.00;100528.32;1867217;77;20199;-40
2021/01/09 01:35:10;;;;;;;;;;;;;;;0.72;100.00;100526.66;1867182;77;20121;-40
2021/01/09 01:37:37;;;;;;;;;;;;;;;0.70;100.00;100522.74;1867219;77;20175;-41
2021/01/09 01:40:07;;;;;;;;;;;;;;;0.69;100.00;100526.16;1875727;75;20280;-41
2021/01/09 01:42:34;;;;;;;;;;;;;;;0.67;100.00;100524.38;1877208;75;20131;-41
2021/01/09 01:45:07;;;;;;;;;;;;;;;0.64;100.00;100526.91;1867401;77;20173;-42
2021/01/09 01:47:35;;;;;;;;;;;;;;;0.60;100.00;100510.48;1868124;75;20134;-40
2021/01/09 01:50:04;;;;;;;;;;;;;;;0.58;100.00;100517.34;1869384;75;20437;-41
2021/01/09 01:52:32;;;;;;;;;;;;;;;0.58;100.00;100516.47;1883501;75;20170;-41
2021/01/09 01:54:59;;;;;;;;;;;;;;;0.58;100.00;100513.89;1867003;77;20193;-41
2021/01/09 01:57:27;;;;;;;;;;;;;;;0.58;100.00;100510.89;1867114;77;20173;-40
2021/01/09 01:59:55;;;;;;;;;;;;;;;0.58;100.00;100508.73;1867435;77;20249;-41
2021/01/09 02:02:22;;;;;;;;;;;;;;;0.57;100.00;100511.73;1867269;77;20527;-41
2021/01/09 02:04:54;;;;;;;;;;;;;;;0.56;100.00;100506.53;1867306;77;20273;-42
2021/01/09 02:07:23;;;;;;;;;;;;;;;0.54;100.00;100505.62;1867255;77;20241;-40
2021/01/09 02:09:50;;;;;;;;;;;;;;;0.52;100.00;100504.73;1867267;77;20146;-41
2021/01/09 02:12:29;;;;;;;;;;;;;;;0.51;100.00;100499.13;1867062;77;20193;-42
2021/01/09 02:14:57;;;;;;;;;;;;;;;0.51;100.00;100492.68;1867496;77;20279;-40
2021/01/09 02:17:25;;;;;;;;;;;;;;;0.49;100.00;100487.48;1867271;77;20150;-41
2021/01/09 02:19:56;;;;;;;;;;;;;;;0.48;100.00;100484.45;1867170;77;20178;-42
2021/01/09 02:22:23;;;;;;;;;;;;;;;0.47;100.00;100485.70;1852160;76;20123;-42
2021/01/09 02:26:52;;;;;;;;;;;;;;;0.46;100.00;100478.38;1909475;74;20154;-41
2021/01/09 02:29:21;;;;;;;;;;;;;;;0.40;100.00;100476.97;1878932;75;20462;-41
2021/01/09 02:31:51;;;;;;;;;;;;;;;0.38;100.00;100470.93;1903256;75;20137;-42
2021/01/09 02:34:19;;;;;;;;;;;;;;;0.35;100.00;100470.85;1899385;75;20130;-42
2021/01/09 02:36:47;;;;;;;;;;;;;;;0.30;100.00;100465.61;1885147;75;20170;-42
2021/01/09 02:39:15;;;;;;;;;;;;;;;0.28;100.00;100465.98;1867821;77;20142;-41
2021/01/09 02:41:43;;;;;;;;;;;;;;;0.26;100.00;100462.50;1868181;77;20376;-42
2021/01/09 02:44:11;;;;;;;;;;;;;;;0.24;100.00;100456.88;1880142;76;20130;-42
2021/01/09 02:46:39;;;;;;;;;;;;;;;0.23;100.00;100457.30;1868672;75;20372;-42
2021/01/09 02:49:11;;;;;;;;;;;;;;;0.21;100.00;100459.38;1867969;76;20466;-41
2021/01/09 02:51:40;;;;;;;;;;;;;;;0.20;100.00;100457.22;1868198;75;20121;-41
2021/01/09 02:54:08;;;;;;;;;;;;;;;0.17;100.00;100452.43;1868022;77;20144;-41
2021/01/09 02:56:35;;;;;;;;;;;;;;;0.14;100.00;100455.80;1868106;76;20306;-40
2021/01/09 02:59:03;;;;;;;;;;;;;;;0.12;100.00;100448.89;1868062;77;20133;-40
2021/01/09 03:01:31;;;;;;;;;;;;;;;0.10;100.00;100437.67;1868037;76;20536;-40
2021/01/09 03:03:59;;;;;;;;;;;;;;;0.10;100.00;100437.67;1868367;77;20156;-41
2021/01/09 03:06:28;;;;;;;;;;;;;;;0.09;100.00;100441.95;1868252;77;20152;-39
2021/01/09 03:08:57;;;;;;;;;;;;;;;0.07;100.00;100438.46;1868099;76;20204;-39
2021/01/09 03:11:25;;;;;;;;;;;;;;;0.06;100.00;100438.04;1868132;76;20223;-39
2021/01/09 03:13:53;;;;;;;;;;;;;;;0.04;100.00;100434.55;1868459;76;20156;-39
2021/01/09 03:16:21;;;;;;;;;;;;;;;0.03;100.00;100428.07;1868105;77;20156;-39
2021/01/09 03:18:49;;;;;;;;;;;;;;;0.02;100.00;100427.20;1868315;77;20386;-42
2021/01/09 03:21:17;;;;;;;;;;;;;;;0.03;100.00;100424.20;1868111;76;20432;-39
2021/01/09 03:23:45;;;;;;;;;;;;;;;0.02;100.00;100434.05;1868237;77;20133;-39
2021/01/09 03:26:12;;;;;;;;;;;;;;;-0.01;100.00;100435.75;1867924;77;20272;-39
2021/01/09 03:28:40;;;;;;;;;;;;;;;-0.02;100.00;100423.70;1868079;76;20247;-38
2021/01/09 03:31:08;;;;;;;;;;;;;;;-0.03;100.00;100430.97;1868242;77;20223;-39
2021/01/09 03:33:36;;;;;;;;;;;;;;;-0.03;100.00;100422.37;1867968;76;20199;-41
2021/01/09 03:36:06;;;;;;;;;;;;;;;-0.04;100.00;100429.23;1867838;76;20172;-41
2021/01/09 03:38:34;;;;;;;;;;;;;;;-0.03;100.00;100428.81;1867684;77;20378;-38
2021/01/09 03:41:03;;;;;;;;;;;;;;;-0.04;100.00;100421.50;1867749;77;20126;-38
2021/01/09 03:43:30;;;;;;;;;;;;;;;-0.04;100.00;100409.03;1867441;77;20199;-38
2021/01/09 03:45:59;;;;;;;;;;;;;;;-0.04;100.00;100406.45;1867555;77;20315;-37
2021/01/09 03:48:27;;;;;;;;;;;;;;;-0.06;100.00;100407.70;1867745;77;20429;-37
2021/01/09 03:50:56;;;;;;;;;;;;;;;-0.04;100.00;100409.03;1867659;77;20137;-37
2021/01/09 03:53:23;;;;;;;;;;;;;;;-0.06;100.00;100405.54;1867420;77;20152;-37
2021/01/09 03:55:51;;;;;;;;;;;;;;;-0.07;100.00;100408.98;1867338;76;20215;-40
2021/01/09 03:58:19;;;;;;;;;;;;;;;-0.08;100.00;100414.55;1867451;77;20149;-38
2021/01/09 04:00:47;;;;;;;;;;;;;;;-0.09;100.00;100419.25;1867633;76;20446;-38
2021/01/09 04:03:15;;;;;;;;;;;;;;;-0.08;100.00;100423.57;1867342;76;20192;-39
2021/01/09 04:05:42;;;;;;;;;;;;;;;-0.09;100.00;100426.11;1867452;77;20195;-38
2021/01/09 04:08:10;;;;;;;;;;;;;;;-0.11;100.00;100423.91;1867677;77;20152;-38
2021/01/09 04:10:38;;;;;;;;;;;;;;;-0.11;100.00;100441.94;1867461;76;20224;-40
2021/01/09 04:13:06;;;;;;;;;;;;;;;-0.11;100.00;100436.78;1867355;76;20247;-37
2021/01/09 04:15:34;;;;;;;;;;;;;;;-0.11;100.00;100429.05;1867227;77;20172;-38
2021/01/09 04:18:02;;;;;;;;;;;;;;;-0.12;100.00;100420.88;1867771;76;20322;-38
2021/01/09 04:20:32;;;;;;;;;;;;;;;-0.14;100.00;100415.71;1867575;77;20206;-38
2021/01/09 04:23:00;;;;;;;;;;;;;;;-0.15;100.00;100417.83;1867702;76;20137;-38
2021/01/09 04:25:29;;;;;;;;;;;;;;;-0.16;100.00;100417.38;1867484;77;20395;-38
2021/01/09 04:27:57;;;;;;;;;;;;;;;-0.16;100.00;100413.92;1867206;76;20540;-38
2021/01/09 04:30:25;;;;;;;;;;;;;;;-0.17;100.00;100413.05;1867391;76;20248;-39
2021/01/09 04:32:52;;;;;;;;;;;;;;;-0.18;100.00;100407.86;1867592;77;20264;-38
2021/01/09 04:35:20;;;;;;;;;;;;;;;-0.19;100.00;100409.56;1867697;77;20247;-39
2021/01/09 04:37:48;;;;;;;;;;;;;;;-0.21;100.00;100407.39;1867367;77;20219;-38
2021/01/09 04:40:16;;;;;;;;;;;;;;;-0.22;100.00;100400.91;1867304;76;20121;-37
2021/01/09 04:42:44;;;;;;;;;;;;;;;-0.22;100.00;100415.95;1867480;77;20187;-38
2021/01/09 04:45:13;;;;;;;;;;;;;;;-0.24;100.00;100408.60;1867458;77;20204;-38
2021/01/09 04:47:41;;;;;;;;;;;;;;;-0.25;100.00;100401.70;1867537;77;20395;-39
2021/01/09 04:50:10;;;;;;;;;;;;;;;-0.25;100.00;100402.13;1867316;76;20195;-39
2021/01/09 04:52:38;;;;;;;;;;;;;;;-0.26;100.00;100400.41;1867488;77;20184;-38
2021/01/09 04:55:07;;;;;;;;;;;;;;;-0.26;100.00;100401.25;1874173;76;20259;-40
2021/01/09 04:57:34;;;;;;;;;;;;;;;-0.26;100.00;100408.14;1867404;76;20186;-39
2021/01/09 05:00:06;;;;;;;;;;;;;;;-0.26;100.00;100405.11;1867614;76;20180;-38
2021/01/09 05:02:36;;;;;;;;;;;;;;;-0.26;100.00;100392.68;1868366;75;20170;-37
2021/01/09 05:05:06;;;;;;;;;;;;;;;-0.26;100.00;100387.08;1867414;77;20270;-40
2021/01/09 05:07:34;;;;;;;;;;;;;;;-0.26;100.00;100382.38;1867463;77;20190;-37
2021/01/09 05:10:05;;;;;;;;;;;;;;;-0.26;100.00;100373.36;1867266;77;20126;-38
2021/01/09 05:12:35;;;;;;;;;;;;;;;-0.28;100.00;100368.17;1867445;77;20154;-38
2021/01/09 05:15:04;;;;;;;;;;;;;;;-0.28;100.00;100366.02;1867298;77;20159;-37
2021/01/09 05:17:33;;;;;;;;;;;;;;;-0.29;100.00;100370.30;1867520;77;20440;-40
2021/01/09 05:20:04;;;;;;;;;;;;;;;-0.27;100.00;100383.21;1867478;75;20205;-39
2021/01/09 05:22:33;;;;;;;;;;;;;;;-0.28;100.00;100388.78;1867356;77;20439;-39
2021/01/09 05:25:01;;;;;;;;;;;;;;;-0.28;100.00;100387.48;1867195;77;20173;-38
2021/01/09 05:27:30;;;;;;;;;;;;;;;-0.28;100.00;100399.50;1867226;77;20407;-38
2021/01/09 05:29:58;;;;;;;;;;;;;;;-0.27;100.00;100401.23;1867259;77;20297;-40
2021/01/09 05:32:26;;;;;;;;;;;;;;;-0.26;100.00;100396.55;1868443;75;20122;-39
2021/01/09 05:34:54;;;;;;;;;;;;;;;-0.27;100.00;100391.81;1847990;77;20420;-39
2021/01/09 05:37:23;;;;;;;;;;;;;;;-0.26;100.00;100392.68;1867053;77;20225;-41
2021/01/09 05:39:55;;;;;;;;;;;;;;;-0.27;100.00;100391.81;1866952;77;20182;-40
2021/01/09 05:42:24;;;;;;;;;;;;;;;-0.25;100.00;100395.68;1867099;77;20197;-38
2021/01/09 05:44:53;;;;;;;;;;;;;;;-0.24;100.00;100392.27;1868503;75;20182;-38
2021/01/09 05:47:22;;;;;;;;;;;;;;;-0.24;100.00;100387.13;1869521;75;20192;-40
2021/01/09 05:49:51;;;;;;;;;;;;;;;-0.23;100.00;100388.87;1870429;75;20123;-39
2021/01/09 05:52:19;;;;;;;;;;;;;;;-0.24;100.00;100397.01;1871532;75;20192;-40
2021/01/09 05:54:51;;;;;;;;;;;;;;;-0.23;100.00;100396.59;1841655;75;20309;-39
2021/01/09 05:57:18;;;;;;;;;;;;;;;-0.22;100.00;100402.20;1854753;75;20286;-39
2021/01/09 05:59:46;;;;;;;;;;;;;;;-0.22;100.00;100402.20;1869016;75;20223;-40
2021/01/09 06:02:14;;;;;;;;;;;;;;;-0.21;100.00;100403.95;1872728;75;20180;-39
2021/01/09 06:04:44;;;;;;;;;;;;;;;-0.21;100.00;100407.39;1854256;75;20175;-39
2021/01/09 06:07:14;;;;;;;;;;;;;;;-0.20;100.00;100410.42;1890107;75;20144;-39
2021/01/09 06:10:00;;;;;;;;;;;;;;;-0.19;100.00;100391.53;1902161;75;20176;-38
2021/01/09 06:12:28;;;;;;;;;;;;;;;-0.19;100.00;100385.09;1871868;75;20221;-38
2021/01/09 06:14:57;;;;;;;;;;;;;;;-0.18;100.00;100381.69;1851541;75;20203;-39
2021/01/09 06:17:25;;;;;;;;;;;;;;;-0.17;100.00;100384.72;1849230;77;20177;-39
2021/01/09 06:19:53;;;;;;;;;;;;;;;-0.16;100.00;100386.46;1834008;75;20178;-38
2021/01/09 06:22:21;;;;;;;;;;;;;;;-0.14;100.00;100387.79;1869268;75;20201;-40
2021/01/09 06:26:50;;;;;;;;;;;;;;;-0.08;100.00;100397.80;1919092;74;20487;-38
2021/01/09 06:29:27;;;;;;;;;;;;;;;-0.09;100.00;100411.94;1884572;75;20168;-40
2021/01/09 06:31:59;;;;;;;;;;;;;;;-0.09;100.00;100396.06;1893548;75;20392;-41
2021/01/09 06:34:29;;;;;;;;;;;;;;;-0.04;100.00;100396.15;1867806;77;20142;-39
2021/01/09 06:36:58;;;;;;;;;;;;;;;-0.02;100.00;100403.50;1867749;75;20122;-39
2021/01/09 06:39:27;;;;;;;;;;;;;;;0.00;100.00;100412.98;1867888;77;20511;-41
2021/01/09 06:41:56;;;;;;;;;;;;;;;0.02;100.00;100416.89;1868082;75;20197;-38
2021/01/09 06:44:24;;;;;;;;;;;;;;;0.03;100.00;100408.74;1870171;75;20131;-38
2021/01/09 06:46:52;;;;;;;;;;;;;;;0.03;100.00;100417.77;1868897;75;20194;-40
2021/01/09 06:49:22;;;;;;;;;;;;;;;0.05;100.00;100427.27;1868031;77;20123;-38
2021/01/09 06:52:02;;;;;;;;;;;;;;;0.07;100.00;100426.87;1867818;77;20441;-39
2021/01/09 06:54:39;;;;;;;;;;;;;;;0.08;100.00;100416.14;1867745;75;20243;-39
2021/01/09 06:57:13;;;;;;;;;;;;;;;0.10;100.00;100389.99;1863361;75;20189;-39
2021/01/09 06:59:43;;;;;;;;;;;;;;;0.10;100.00;100384.84;1866976;75;20120;-41
2021/01/09 07:02:26;;;;;;;;;;;;;;;0.09;100.00;100392.98;1875103;75;20201;-39
2021/01/09 07:05:06;;;;;;;;;;;;;;;0.10;100.00;100410.19;1867954;77;20454;-39
2021/01/09 07:07:53;;;;;;;;;;;;;;;0.12;100.00;100411.52;1869384;75;20189;-40
2021/01/09 07:10:28;;;;;;;;;;;;;;;0.13;100.00;100417.13;1872744;75;20239;-40
2021/01/09 07:13:01;;;;;;;;;;;;;;;0.15;100.00;100415.44;1867763;75;20455;-41
2021/01/09 07:15:29;;;;;;;;;;;;;;;0.13;100.00;100411.53;1867589;75;20229;-46
2021/01/09 07:17:59;;;;;;;;;;;;;;;0.12;100.00;100420.55;1862391;77;20194;-41
2021/01/09 07:20:29;;;;;;;;;;;;;;;0.11;100.00;100425.23;1878166;75;20132;-40
2021/01/09 07:23:00;;;;;;;;;;;;;;;0.10;100.00;100430.81;1883724;75;20532;-41
2021/01/09 07:25:34;;;;;;;;;;;;;;;0.10;100.00;100438.95;1881202;75;20179;-41
2021/01/09 07:28:05;;;;;;;;;;;;;;;0.09;100.00;100434.22;1868749;75;20451;-42
2021/01/09 07:30:32;;;;;;;;;;;;;;;0.10;100.00;100435.97;1868714;75;20181;-40
2021/01/09 07:33:01;;;;;;;;;;;;;;;0.09;100.00;100441.95;1881807;75;20223;-39
2021/01/09 07:35:32;;;;;;;;;;;;;;;0.07;100.00;100447.48;1867969;75;20243;-40
2021/01/09 07:38:03;;;;;;;;;;;;;;;0.07;100.00;100453.05;1868793;75;20201;-41
2021/01/09 07:40:46;;;;;;;;;;;;;;;0.08;100.00;100454.80;1866899;75;20286;-41
2021/01/09 07:43:47;;;;;;;;;;;;;;;0.07;100.00;100469.39;1871999;75;20135;-39
2021/01/09 07:46:25;;;;;;;;;;;;;;;0.09;100.00;100471.59;1870765;75;20463;-41
2021/01/09 07:48:54;;;;;;;;;;;;;;;0.10;100.00;100456.58;1866939;77;20186;-40
2021/01/09 07:51:49;;;;;;;;;;;;;;;0.13;100.00;100450.19;1867279;77;20191;-40
2021/01/09 07:54:39;;;;;;;;;;;;;;;0.14;100.00;100462.66;1866909;75;20291;-42
2021/01/09 07:57:21;;;;;;;;;;;;;;;0.15;100.00;100460.13;1873808;75;20162;-40
2021/01/09 08:00:03;;;;;;;;;;;;;;;0.17;100.00;100456.30;1838727;77;20997;-42
2021/01/09 08:02:34;;;;;;;;;;;;;;;0.16;100.00;100456.71;1832320;78;20141;-46
2021/01/09 08:05:12;;;;;;;;;;;;;;;0.18;100.00;100438.70;1835342;77;20169;-40
2021/01/09 08:07:44;;;;;;;;;;;;;;;0.19;100.00;100412.97;1837479;77;20183;-40
2021/01/09 08:10:16;;;;;;;;;;;;;;;0.23;100.00;100422.49;1835662;76;20200;-42
2021/01/09 08:12:45;;;;;;;;;;;;;;;0.25;100.00;100423.41;1817553;78;20185;-40
2021/01/09 08:15:13;;;;;;;;;;;;;;;0.28;100.00;100426.02;1848831;77;20189;-40
2021/01/09 08:17:41;;;;;;;;;;;;;;;0.29;100.00;100416.59;1845191;77;20149;-40
2021/01/09 08:20:10;;;;;;;;;;;;;;;0.31;100.00;100400.73;1829083;77;20192;-42
2021/01/09 08:22:55;;;;;;;;;;;;;;;0.38;100.00;100410.33;1829274;78;20168;-40
2021/01/09 08:25:29;;;;;;;;;;;;;;;0.43;100.00;100412.99;1833785;77;20426;-40
2021/01/09 08:27:57;;;;;;;;;;;;;;;0.43;100.00;100410.00;1838634;77;20131;-39
2021/01/09 08:30:28;;;;;;;;;;;;;;;0.45;100.00;100413.91;1804889;78;20202;-41
2021/01/09 08:33:17;;;;;;;;;;;;;;;0.49;100.00;100397.22;1809843;78;20375;-40
2021/01/09 08:35:52;;;;;;;;;;;;;;;0.55;100.00;100394.75;1836129;77;20375;-41
2021/01/09 08:38:28;;;;;;;;;;;;;;;0.61;100.00;100379.80;1834454;77;20249;-41
2021/01/09 08:40:59;;;;;;;;;;;;;;;0.66;100.00;100356.24;1797355;78;20127;-41
2021/01/09 08:43:29;;;;;;;;;;;;;;;0.74;100.00;100345.64;1846446;77;20436;-42
2021/01/09 08:45:57;;;;;;;;;;;;;;;0.79;100.00;100337.55;1827466;77;20200;-43
2021/01/09 08:48:36;;;;;;;;;;;;;;;0.83;100.00;100338.07;1829160;77;20378;-42
2021/01/09 08:51:07;;;;;;;;;;;;;;;0.87;100.00;100337.68;1830940;77;20557;-43
2021/01/09 08:53:38;;;;;;;;;;;;;;;0.88;100.00;100327.81;1830578;77;20463;-42
2021/01/09 08:56:05;;;;;;;;;;;;;;;0.81;100.00;100341.03;1817834;78;20232;-43
2021/01/09 08:58:34;;;;;;;;;;;;;;;0.74;100.00;100357.25;1820234;77;20178;-44
2021/01/09 09:01:06;;;;;;;;;;;;;;;0.69;100.00;100371.37;1817555;78;20244;-44
2021/01/09 09:03:36;;;;;;;;;;;;;;;0.66;100.00;100379.04;1812453;78;20176;-44
2021/01/09 09:06:12;;;;;;;;;;;;;;;0.63;100.00;100371.27;1827191;78;20398;-41
2021/01/09 09:08:39;;;;;;;;;;;;;;;0.63;100.00;100357.08;1810040;78;20138;-41
2021/01/09 09:11:07;;;;;;;;;;;;;;;0.66;100.00;100336.48;1824170;79;20188;-41
2021/01/09 09:13:35;;;;;;;;;;;;;;;0.69;100.00;100340.83;1799072;78;20173;-42
2021/01/09 09:16:17;;;;;;;;;;;;;;;0.75;100.00;100339.64;1842326;77;20199;-39
2021/01/09 09:18:45;;;;;;;;;;;;;;;0.79;100.00;100339.71;1830452;77;20284;-39
2021/01/09 09:21:13;;;;;;;;;;;;;;;0.78;100.00;100359.06;1831618;77;20228;-38
2021/01/09 09:23:50;;;;;;;;;;;;;;;0.79;100.00;100366.80;1835861;77;20192;-40
2021/01/09 09:26:18;;;;;;;;;;;;;;;0.79;100.00;100369.80;1829515;77;20135;-39
2021/01/09 09:28:50;;;;;;;;;;;;;;;0.80;100.00;100366.38;1832827;77;20324;-38
2021/01/09 09:31:24;;;;;;;;;;;;;;;0.80;100.00;100349.20;1832676;77;20212;-39
2021/01/09 09:34:05;;;;;;;;;;;;;;;0.80;100.00;100344.45;1793652;79;20519;-38
2021/01/09 09:36:38;;;;;;;;;;;;;;;0.78;100.00;100326.81;1816465;77;20164;-39
2021/01/09 09:39:14;;;;;;;;;;;;;;;0.77;100.00;100331.52;1796863;78;20161;-39
2021/01/09 09:41:55;;;;;;;;;;;;;;;0.73;100.00;100324.13;1814904;77;20190;-39
2021/01/09 09:44:37;;;;;;;;;;;;;;;0.73;100.00;100314.23;1809548;78;20162;-41
2021/01/09 09:47:25;;;;;;;;;;;;;;;0.72;100.00;100313.36;1803820;78;20190;-40
2021/01/09 09:49:59;;;;;;;;;;;;;;;0.72;100.00;100331.42;1799291;78;20257;-40
2021/01/09 09:52:27;;;;;;;;;;;;;;;0.72;100.00;100339.16;1811416;78;20202;-41
2021/01/09 09:55:04;;;;;;;;;;;;;;;0.73;100.00;100320.68;1804101;78;20291;-48
2021/01/09 09:57:32;;;;;;;;;;;;;;;0.77;100.00;100313.46;1803324;78;20212;-51
2021/01/09 10:00:09;;;;;;;;;;;;;;;0.78;100.00;100299.30;1826771;77;20135;-39
2021/01/09 10:02:55;;;;;;;;;;;;;;;0.73;100.00;100319.39;1803379;78;20160;-42
2021/01/09 10:05:23;;;;;;;;;;;;;;;0.69;100.00;100339.13;1799563;79;20152;-40
2021/01/09 10:08:11;;;;;;;;;;;;;;;0.66;100.00;100335.19;1820594;77;20181;-40
2021/01/09 10:10:38;;;;;;;;;;;;;;;0.68;100.00;100323.61;1835660;77;20461;-40
2021/01/09 10:13:06;;;;;;;;;;;;;;;0.70;100.00;100308.62;1820583;78;20227;-40
2021/01/09 10:15:34;;;;;;;;;;;;;;;0.73;100.00;100326.71;1820173;78;20320;-41
2021/01/09 10:18:02;;;;;;;;;;;;;;;0.75;100.00;100346.97;1799472;78;20183;-39
2021/01/09 10:20:30;;;;;;;;;;;;;;;0.75;100.00;100340.52;1793224;79;20456;-41
2021/01/09 10:22:58;;;;;;;;;;;;;;;0.79;100.00;100324.65;1836411;77;20177;-40
2021/01/09 10:26:50;;;;;;;;;;;;;;;0.89;100.00;100310.20;1884861;74;20227;-42
2021/01/09 10:29:17;;;;;;;;;;;;;;;0.86;100.00;100315.30;1864385;75;20428;-39
2021/01/09 10:31:45;;;;;;;;;;;;;;;0.84;100.00;100323.45;1875486;75;20185;-39
2021/01/09 10:34:13;;;;;;;;;;;;;;;0.86;100.00;100332.94;1879040;75;20358;-41
2021/01/09 10:36:41;;;;;;;;;;;;;;;0.84;100.00;100326.91;1883234;75;20328;-41
2021/01/09 10:39:09;;;;;;;;;;;;;;;0.85;100.00;100332.52;1867058;75;20180;-40
2021/01/09 10:41:36;;;;;;;;;;;;;;;0.87;100.00;100334.69;1881163;75;20174;-41
2021/01/09 10:44:06;;;;;;;;;;;;;;;0.86;100.00;100327.78;1871156;75;20199;-40
2021/01/09 10:46:33;;;;;;;;;;;;;;;0.80;100.00;100325.10;1867401;76;20531;-41
2021/01/09 10:49:02;;;;;;;;;;;;;;;0.80;100.00;100330.27;1874707;75;20418;-43
2021/01/09 10:51:30;;;;;;;;;;;;;;;0.82;100.00;100334.16;1871654;75;20213;-39
2021/01/09 10:53:58;;;;;;;;;;;;;;;0.85;100.00;100343.27;1871478;75;20374;-40
2021/01/09 10:56:26;;;;;;;;;;;;;;;0.86;100.00;100336.81;1873302;75;20236;-40
2021/01/09 10:58:54;;;;;;;;;;;;;;;0.85;100.00;100323.49;1868211;75;20290;-41
2021/01/09 11:01:23;;;;;;;;;;;;;;;0.90;100.00;100323.14;1872079;75;20270;-40
2021/01/09 11:03:51;;;;;;;;;;;;;;;0.92;100.00;100331.75;1868659;75;20174;-48
2021/01/09 11:06:20;;;;;;;;;;;;;;;0.92;100.00;100333.48;1876569;75;20148;-39
2021/01/09 11:08:51;;;;;;;;;;;;;;;0.93;100.00;100339.07;1870372;75;20184;-40
2021/01/09 11:11:20;;;;;;;;;;;;;;;0.94;100.00;100322.33;1876739;75;20132;-42
2021/01/09 11:13:48;;;;;;;;;;;;;;;0.97;100.00;100319.81;1866585;77;20297;-42
2021/01/09 11:16:23;;;;;;;;;;;;;;;1.03;100.00;100321.61;1868106;75;20186;-42
2021/01/09 11:18:51;;;;;;;;;;;;;;;1.04;100.00;100330.68;1867012;75;20292;-39
2021/01/09 11:21:22;;;;;;;;;;;;;;;1.08;100.00;100334.16;1868096;75;20217;-43
2021/01/09 11:23:49;;;;;;;;;;;;;;;1.08;100.00;100327.29;1867280;75;20383;-41
2021/01/09 11:26:24;;;;;;;;;;;;;;;1.03;100.00;100339.27;1874982;75;20273;-40
2021/01/09 11:28:53;;;;;;;;;;;;;;;1.00;100.00;100342.20;1871542;75;20174;-40
2021/01/09 11:31:22;;;;;;;;;;;;;;;1.00;100.00;100336.62;1867728;75;20201;-37
2021/01/09 11:33:51;;;;;;;;;;;;;;;1.04;100.00;100338.84;1870919;75;20194;-39
2021/01/09 11:36:18;;;;;;;;;;;;;;;1.01;100.00;100338.78;1869977;75;20178;-40
2021/01/09 11:38:47;;;;;;;;;;;;;;;1.02;100.00;100354.72;1875760;75;20168;-40
2021/01/09 11:41:15;;;;;;;;;;;;;;;1.04;100.00;100360.36;1869311;75;20226;-38
2021/01/09 11:43:44;;;;;;;;;;;;;;;1.05;100.00;100361.23;1866934;75;20172;-40
2021/01/09 11:46:12;;;;;;;;;;;;;;;1.07;100.00;100354.36;1874076;75;20275;-38
2021/01/09 11:48:41;;;;;;;;;;;;;;;1.09;100.00;100343.65;1866181;75;20164;-37
2021/01/09 11:51:09;;;;;;;;;;;;;;;1.06;100.00;100348.75;1876358;75;20127;-40
2021/01/09 11:53:38;;;;;;;;;;;;;;;1.04;100.00;100345.30;1875609;75;20589;-38
2021/01/09 11:56:06;;;;;;;;;;;;;;;1.01;100.00;100347.39;1876987;75;20467;-37
2021/01/09 11:58:34;;;;;;;;;;;;;;;0.98;100.00;100352.94;1866525;75;20191;-41
2021/01/09 12:01:02;;;;;;;;;;;;;;;0.92;100.00;100354.97;1866656;75;20198;-38
2021/01/09 12:03:32;;;;;;;;;;;;;;;0.93;100.00;100362.30;1850893;75;20184;-37
2021/01/09 12:06:01;;;;;;;;;;;;;;;0.94;100.00;100362.33;1872735;75;20386;-37
2021/01/09 12:08:28;;;;;;;;;;;;;;;0.94;100.00;100375.66;1867805;75;20235;-40
2021/01/09 12:10:57;;;;;;;;;;;;;;;0.91;100.00;100376.48;1867633;75;20573;-38
2021/01/09 12:13:25;;;;;;;;;;;;;;;0.86;100.00;100379.39;1877124;75;20373;-38
2021/01/09 12:15:52;;;;;;;;;;;;;;;0.88;100.00;100385.45;1869900;75;20203;-38
2021/01/09 12:18:21;;;;;;;;;;;;;;;0.88;100.00;100386.75;1875136;75;20452;-39
2021/01/09 12:20:49;;;;;;;;;;;;;;;0.90;100.00;100391.52;1879758;75;20414;-39
2021/01/09 12:23:18;;;;;;;;;;;;;;;0.89;100.00;100391.06;1870802;75;20245;-37
2021/01/09 12:25:47;;;;;;;;;;;;;;;0.89;100.00;100400.52;1869846;75;20300;-40
2021/01/09 12:28:15;;;;;;;;;;;;;;;0.88;100.00;100408.68;1878726;75;20385;-39
2021/01/09 12:30:43;;;;;;;;;;;;;;;0.88;100.00;100416.84;1876844;75;20152;-40
2021/01/09 12:33:11;;;;;;;;;;;;;;;0.88;100.00;100411.68;1871622;75;20174;-39
2021/01/09 12:35:39;;;;;;;;;;;;;;;0.86;100.00;100402.61;1873094;75;20139;-38
2021/01/09 12:38:08;;;;;;;;;;;;;;;0.88;100.00;100404.81;1872124;75;20239;-36
2021/01/09 12:40:36;;;;;;;;;;;;;;;0.89;100.00;100422.45;1873865;75;20500;-38
2021/01/09 12:43:04;;;;;;;;;;;;;;;0.89;100.00;100427.61;1869006;75;20136;-40
2021/01/09 12:45:33;;;;;;;;;;;;;;;0.87;100.00;100431.45;1872393;75;20277;-40
2021/01/09 12:48:03;;;;;;;;;;;;;;;0.85;100.00;100437.45;1873692;75;20156;-39
2021/01/09 12:50:42;;;;;;;;;;;;;;;0.83;100.00;100425.80;1847987;75;20167;-37
2021/01/09 12:53:12;;;;;;;;;;;;;;;0.80;100.00;100424.02;1834450;75;20275;-37